createdAt,value
2019-02-26T00:00:56.473Z,24.10
2019-02-26T00:03:26.272Z,30.27
2019-02-26T00:05:54.261Z,27.10
2019-02-26T00:08:21.848Z,28.97
2019-02-26T00:10:50.166Z,25.90
2019-02-26T00:13:20.222Z,25.70
2019-02-26T00:15:48.321Z,22.37
2019-02-26T00:18:21.369Z,24.10
2019-02-26T00:20:47.647Z,28.10
2019-02-26T00:23:15.661Z,26.97
2019-02-26T00:25:41.800Z,27.33
2019-02-26T00:28:08.053Z,25.23
2019-02-26T00:30:37.913Z,23.93
2019-02-26T00:33:05.412Z,27.53
2019-02-26T00:35:31.525Z,29.93
2019-02-26T00:38:01.592Z,32.00
2019-02-26T00:40:27.665Z,29.30
2019-02-26T00:42:55.020Z,27.93
2019-02-26T00:45:26.942Z,30.50
2019-02-26T00:47:50.764Z,23.90
2019-02-26T00:50:18.060Z,27.23
2019-02-26T00:52:44.163Z,30.37
2019-02-26T00:55:12.433Z,27.10
2019-02-26T00:57:40.675Z,23.73
2019-02-26T01:00:12.362Z,29.97
2019-02-26T01:02:38.666Z,23.77
2019-02-26T01:05:10.804Z,25.67
2019-02-26T01:07:37.226Z,27.23
2019-02-26T01:10:07.633Z,24.30
2019-02-26T01:12:37.668Z,28.17
2019-02-26T01:15:11.576Z,26.23
2019-02-26T01:17:40.115Z,30.50
2019-02-26T01:20:09.466Z,25.27
2019-02-26T01:22:37.750Z,23.80
2019-02-26T01:25:10.107Z,26.20
2019-02-26T01:27:36.189Z,24.60
2019-02-26T01:30:08.337Z,24.13
2019-02-26T01:32:34.396Z,24.73
2019-02-26T01:35:03.298Z,27.97
2019-02-26T01:37:32.042Z,23.10
2019-02-26T01:39:59.307Z,23.03
2019-02-26T01:42:27.178Z,21.30
2019-02-26T01:44:55.695Z,21.30
2019-02-26T01:47:24.166Z,26.23
2019-02-26T01:49:52.119Z,25.40
2019-02-26T01:52:18.180Z,24.50
2019-02-26T01:54:44.226Z,26.13
2019-02-26T01:57:10.380Z,23.93
2019-02-26T01:59:36.427Z,29.37
2019-02-26T02:02:04.547Z,31.00
2019-02-26T02:04:32.101Z,23.80
2019-02-26T02:06:59.702Z,26.10
2019-02-26T02:09:28.843Z,27.80
2019-02-26T02:11:57.417Z,25.00
2019-02-26T02:14:23.867Z,27.53
2019-02-26T02:16:50.207Z,26.00
2019-02-26T02:19:20.861Z,27.07
2019-02-26T02:21:49.334Z,24.20
2019-02-26T02:24:17.379Z,23.23
2019-02-26T02:26:49.793Z,23.10
2019-02-26T02:29:16.612Z,26.50
2019-02-26T02:31:43.330Z,23.53
2019-02-26T02:34:12.150Z,20.23
2019-02-26T02:36:38.220Z,25.47
2019-02-26T02:39:10.344Z,28.73
2019-02-26T02:41:35.284Z,22.53
2019-02-26T02:44:01.420Z,19.80
2019-02-26T02:46:30.904Z,20.60
2019-02-26T02:48:57.342Z,20.33
2019-02-26T02:51:28.023Z,22.10
2019-02-26T02:53:56.669Z,19.40
2019-02-26T02:56:23.204Z,26.70
2019-02-26T02:58:51.696Z,22.57
2019-02-26T03:01:20.416Z,21.60
2019-02-26T03:03:50.520Z,21.90
2019-02-26T03:06:16.684Z,22.60
2019-02-26T03:08:45.116Z,19.47
2019-02-26T03:11:11.536Z,21.40
2019-02-26T03:13:40.241Z,22.20
2019-02-26T03:16:06.064Z,22.17
2019-02-26T03:18:32.143Z,25.88
2019-02-26T03:20:59.988Z,24.43
2019-02-26T03:23:27.098Z,24.70
2019-02-26T03:25:55.105Z,21.73
2019-02-26T03:28:21.507Z,19.80
2019-02-26T03:30:52.035Z,25.65
2019-02-26T03:33:21.209Z,24.40
2019-02-26T03:35:48.039Z,22.50
2019-02-26T03:38:15.291Z,22.13
2019-02-26T03:40:42.491Z,24.43
2019-02-26T03:43:10.863Z,25.77
2019-02-26T03:45:37.923Z,24.87
2019-02-26T03:48:04.791Z,23.05
2019-02-26T03:50:32.494Z,20.08
2019-02-26T03:52:58.802Z,21.17
2019-02-26T03:55:24.932Z,21.23
2019-02-26T03:57:56.003Z,21.52
2019-02-26T04:00:21.159Z,25.17
2019-02-26T04:02:49.058Z,22.50
2019-02-26T04:05:22.135Z,21.37
2019-02-26T04:07:51.686Z,27.22
2019-02-26T04:10:16.952Z,26.62
2019-02-26T04:12:45.052Z,18.82
2019-02-26T04:15:18.743Z,20.92
2019-02-26T04:17:44.839Z,22.87
2019-02-26T04:20:12.634Z,21.75
2019-02-26T04:22:49.889Z,18.80
2019-02-26T04:25:27.228Z,22.95
2019-02-26T04:28:10.825Z,21.77
2019-02-26T04:30:57.963Z,22.42
2019-02-26T04:33:41.483Z,24.43
2019-02-26T04:36:23.241Z,23.67
2019-02-26T04:39:26.426Z,26.23
2019-02-26T04:42:26.815Z,24.72
2019-02-26T04:45:09.185Z,25.95
2019-02-26T04:48:00.552Z,24.43
2019-02-26T04:50:28.625Z,25.68
2019-02-26T04:52:58.321Z,24.45
2019-02-26T04:55:21.871Z,25.90
2019-02-26T04:57:53.995Z,28.12
2019-02-26T05:00:20.427Z,24.72
2019-02-26T05:02:46.605Z,24.95
2019-02-26T05:05:14.036Z,18.55
2019-02-26T05:07:46.518Z,22.55
2019-02-26T05:10:26.413Z,23.67
2019-02-26T05:12:56.200Z,24.77
2019-02-26T05:15:23.289Z,19.95
2019-02-26T05:17:51.606Z,23.62
2019-02-26T05:20:19.003Z,24.00
2019-02-26T05:22:45.187Z,29.23
2019-02-26T05:25:19.187Z,23.85
2019-02-26T05:27:47.490Z,27.62
2019-02-26T05:30:15.592Z,25.08
2019-02-26T05:32:40.570Z,24.52
2019-02-26T05:35:06.677Z,23.45
2019-02-26T05:37:35.356Z,23.47
2019-02-26T05:40:00.780Z,26.12
2019-02-26T05:42:28.847Z,25.82
2019-02-26T05:44:57.402Z,66.35
2019-02-26T05:47:26.129Z,35.15
2019-02-26T05:49:52.053Z,28.32
2019-02-26T05:52:18.113Z,24.98
2019-02-26T05:54:44.407Z,25.52
2019-02-26T05:57:25.656Z,44.40
2019-02-26T05:59:42.481Z,25.32
2019-02-26T06:02:11.318Z,29.20
2019-02-26T06:04:43.888Z,24.67
2019-02-26T06:07:09.149Z,21.15
2019-02-26T06:09:39.112Z,23.55
2019-02-26T06:12:05.925Z,21.33
2019-02-26T06:14:33.249Z,22.90
2019-02-26T06:17:01.331Z,24.15
2019-02-26T06:19:42.948Z,27.10
2019-02-26T06:22:14.492Z,26.95
2019-02-26T06:24:38.303Z,25.30
2019-02-26T06:27:08.633Z,18.50
2019-02-26T06:29:38.980Z,28.80
2019-02-26T06:32:13.034Z,36.05
2019-02-26T06:34:40.161Z,22.87
2019-02-26T06:37:16.400Z,19.90
2019-02-26T06:39:43.014Z,21.93
2019-02-26T06:42:12.044Z,28.17
2019-02-26T06:44:41.281Z,24.90
2019-02-26T06:47:06.894Z,27.05
2019-02-26T06:49:34.492Z,23.62
2019-02-26T06:52:00.659Z,27.65
2019-02-26T06:54:28.923Z,28.52
2019-02-26T06:56:55.123Z,49.50
2019-02-26T06:59:33.855Z,42.90
2019-02-26T07:01:58.921Z,74.67
2019-02-26T07:04:27.052Z,54.20
2019-02-26T07:06:55.167Z,61.40
2019-02-26T07:09:22.106Z,68.52
2019-02-26T07:11:49.029Z,55.48
2019-02-26T07:14:15.260Z,56.15
2019-02-26T07:16:41.843Z,58.15
2019-02-26T07:19:09.118Z,51.65
2019-02-26T07:21:37.997Z,51.30
2019-02-26T07:24:07.751Z,61.75
2019-02-26T07:26:36.167Z,39.30
2019-02-26T07:29:03.450Z,40.03
2019-02-26T07:31:33.626Z,41.92
2019-02-26T07:34:03.179Z,50.92
2019-02-26T07:36:29.415Z,34.73
2019-02-26T07:38:56.592Z,35.63
2019-02-26T07:41:23.633Z,35.40
2019-02-26T07:43:54.091Z,34.00
2019-02-26T07:46:21.492Z,26.77
2019-02-26T07:48:53.959Z,41.50
2019-02-26T07:51:19.597Z,26.52
2019-02-26T07:53:50.576Z,44.33
2019-02-26T07:56:13.937Z,38.17
2019-02-26T07:58:42.954Z,29.42
2019-02-26T08:01:12.299Z,40.95
2019-02-26T08:03:38.370Z,35.00
2019-02-26T08:06:06.750Z,36.07
2019-02-26T08:08:33.904Z,36.47
2019-02-26T08:11:01.959Z,28.73
2019-02-26T08:13:31.569Z,24.53
2019-02-26T08:15:59.615Z,28.73
2019-02-26T08:18:25.568Z,20.63
2019-02-26T08:20:55.536Z,21.60
2019-02-26T08:23:22.060Z,19.83
2019-02-26T08:25:52.275Z,21.90
2019-02-26T08:28:20.815Z,18.43
2019-02-26T08:30:47.910Z,19.53
2019-02-26T08:33:15.432Z,18.40
2019-02-26T08:35:41.569Z,20.13
2019-02-26T08:38:07.779Z,18.70
2019-02-26T08:40:35.282Z,22.93
2019-02-26T08:43:02.803Z,21.07
2019-02-26T08:45:30.939Z,21.20
2019-02-26T08:48:00.929Z,21.03
2019-02-26T08:50:33.081Z,18.37
2019-02-26T08:52:58.657Z,17.83
2019-02-26T08:55:25.908Z,18.73
2019-02-26T08:57:54.049Z,16.67
2019-02-26T09:00:21.572Z,22.27
2019-02-26T09:02:56.719Z,15.50
2019-02-26T09:05:25.442Z,21.40
2019-02-26T09:07:51.320Z,20.23
2019-02-26T09:10:20.325Z,23.03
2019-02-26T09:12:48.580Z,21.13
2019-02-26T09:15:20.437Z,22.00
2019-02-26T09:17:46.755Z,16.30
2019-02-26T09:20:15.470Z,27.10
2019-02-26T09:22:48.006Z,17.40
2019-02-26T09:25:23.241Z,17.37
2019-02-26T09:27:44.396Z,16.37
2019-02-26T09:30:15.958Z,20.17
2019-02-26T09:32:44.599Z,18.77
2019-02-26T09:35:20.398Z,18.50
2019-02-26T09:37:50.211Z,16.80
2019-02-26T09:40:23.106Z,18.20
2019-02-26T09:42:51.704Z,17.63
2019-02-26T09:45:23.667Z,16.27
2019-02-26T09:47:51.994Z,26.33
2019-02-26T09:50:19.912Z,30.53
2019-02-26T09:52:50.290Z,19.83
2019-02-26T09:55:17.792Z,27.80
2019-02-26T09:58:04.094Z,20.80
2019-02-26T10:00:30.572Z,20.03
2019-02-26T10:02:58.689Z,29.67
2019-02-26T10:05:24.679Z,24.17
2019-02-26T10:07:54.335Z,22.17
2019-02-26T10:10:25.391Z,23.33
2019-02-26T10:12:53.756Z,23.30
2019-02-26T10:15:19.518Z,24.77
2019-02-26T10:17:46.911Z,27.30
2019-02-26T10:20:24.773Z,28.90
2019-02-26T10:22:57.812Z,29.47
2019-02-26T10:25:23.448Z,24.90
2019-02-26T10:27:54.299Z,30.93
2019-02-26T10:30:21.955Z,27.73
2019-02-26T10:32:49.409Z,28.20
2019-02-26T10:35:25.629Z,33.00
2019-02-26T10:37:53.406Z,24.70
2019-02-26T10:40:20.220Z,24.10
2019-02-26T10:42:47.864Z,30.63
2019-02-26T10:45:16.462Z,45.73
2019-02-26T10:47:43.233Z,21.50
2019-02-26T10:50:16.235Z,32.43
2019-02-26T10:52:41.847Z,48.90
2019-02-26T10:55:12.789Z,52.80
2019-02-26T10:57:38.506Z,29.40
2019-02-26T11:00:10.863Z,23.30
2019-02-26T11:02:36.756Z,23.47
2019-02-26T11:05:08.649Z,28.20
2019-02-26T11:07:40.461Z,22.93
2019-02-26T11:10:08.789Z,28.97
2019-02-26T11:12:34.837Z,33.60
2019-02-26T11:15:11.573Z,28.93
2019-02-26T11:17:37.722Z,27.37
2019-02-26T11:20:10.206Z,24.70
2019-02-26T11:22:36.287Z,27.00
2019-02-26T11:25:05.398Z,24.83
2019-02-26T11:27:31.432Z,38.43
2019-02-26T11:29:59.476Z,31.10
2019-02-26T11:32:28.244Z,29.07
2019-02-26T11:34:55.745Z,26.17
2019-02-26T11:37:24.922Z,28.87
2019-02-26T11:39:52.725Z,28.10
2019-02-26T11:42:23.188Z,26.77
2019-02-26T11:44:50.667Z,28.53
2019-02-26T11:47:18.410Z,39.70
2019-02-26T11:49:46.634Z,26.27
2019-02-26T11:52:12.830Z,24.80
2019-02-26T11:54:40.204Z,23.53
2019-02-26T11:57:10.149Z,26.93
2019-02-26T11:59:38.566Z,23.20
2019-02-26T12:02:06.379Z,21.87
2019-02-26T12:04:32.665Z,23.03
2019-02-26T12:07:01.039Z,31.10
2019-02-26T12:09:32.986Z,29.10
2019-02-26T12:12:00.812Z,27.63
2019-02-26T12:14:27.084Z,31.23
2019-02-26T12:16:59.623Z,34.80
2019-02-26T12:19:28.196Z,29.10
2019-02-26T12:21:57.453Z,22.00
2019-02-26T12:24:28.891Z,19.80
2019-02-26T12:26:55.703Z,27.63
2019-02-26T12:29:23.594Z,26.27
2019-02-26T12:31:58.341Z,24.87
2019-02-26T12:34:26.015Z,20.93
2019-02-26T12:36:53.723Z,22.87
2019-02-26T12:39:22.237Z,30.47
2019-02-26T12:41:51.871Z,24.37
2019-02-26T12:44:17.998Z,25.97
2019-02-26T12:46:44.956Z,24.93
2019-02-26T12:49:18.000Z,19.30
2019-02-26T12:51:45.195Z,17.37
2019-02-26T12:54:15.556Z,18.77
2019-02-26T12:56:42.359Z,17.97
2019-02-26T12:59:08.561Z,18.20
2019-02-26T13:01:39.534Z,17.90
2019-02-26T13:04:09.455Z,18.00
2019-02-26T13:06:40.532Z,21.37
2019-02-26T13:09:07.215Z,17.00
2019-02-26T13:11:33.890Z,12.77
2019-02-26T13:14:05.131Z,21.20
2019-02-26T13:16:32.961Z,18.53
2019-02-26T13:19:04.308Z,17.30
2019-02-26T13:21:28.395Z,17.20
2019-02-26T13:23:58.648Z,22.87
2019-02-26T13:26:23.905Z,17.27
2019-02-26T13:28:56.155Z,19.60
2019-02-26T13:31:22.550Z,20.20
2019-02-26T13:33:49.432Z,22.53
2019-02-26T13:36:17.128Z,18.07
2019-02-26T13:38:48.299Z,19.80
2019-02-26T13:41:29.034Z,22.60
2019-02-26T13:43:40.416Z,20.77
2019-02-26T13:46:06.672Z,20.63
2019-02-26T13:48:33.003Z,21.90
2019-02-26T13:51:01.734Z,15.73
2019-02-26T13:53:29.963Z,16.63
2019-02-26T13:55:58.148Z,21.07
2019-02-26T13:58:24.299Z,23.07
2019-02-26T14:00:52.582Z,19.97
2019-02-26T14:03:19.763Z,22.27
2019-02-26T14:05:45.957Z,19.83
2019-02-26T14:08:14.473Z,24.47
2019-02-26T14:10:40.503Z,28.83
2019-02-26T14:13:08.007Z,31.73
2019-02-26T14:15:35.720Z,23.83
2019-02-26T14:18:02.292Z,19.87
2019-02-26T14:20:29.559Z,24.50
2019-02-26T14:22:55.745Z,22.97
2019-02-26T14:25:21.817Z,21.80
2019-02-26T14:27:47.875Z,22.33
2019-02-26T14:30:19.749Z,24.77
2019-02-26T14:32:46.131Z,14.70
2019-02-26T14:35:15.139Z,14.93
2019-02-26T14:37:43.538Z,19.73
2019-02-26T14:40:16.820Z,28.40
2019-02-26T14:42:45.878Z,21.57
2019-02-26T14:45:14.969Z,22.80
2019-02-26T14:47:41.059Z,25.50
2019-02-26T14:50:11.042Z,26.03
2019-02-26T14:52:37.386Z,15.00
2019-02-26T14:55:04.579Z,18.07
2019-02-26T14:57:30.681Z,21.80
2019-02-26T14:59:56.907Z,20.10
2019-02-26T15:02:23.100Z,17.33
2019-02-26T15:04:51.220Z,21.47
2019-02-26T15:07:17.322Z,20.23
2019-02-26T15:09:43.367Z,22.20
2019-02-26T15:12:09.448Z,25.83
2019-02-26T15:14:35.513Z,22.00
2019-02-26T15:17:01.657Z,16.63
2019-02-26T15:19:29.600Z,16.90
2019-02-26T15:21:57.218Z,22.60
2019-02-26T15:24:23.531Z,15.20
2019-02-26T15:26:50.392Z,22.97
2019-02-26T15:29:18.891Z,18.50
2019-02-26T15:31:48.424Z,14.97
2019-02-26T15:34:14.760Z,21.07
2019-02-26T15:36:42.796Z,32.40
2019-02-26T15:39:09.187Z,15.10
2019-02-26T15:41:38.403Z,13.47
2019-02-26T15:44:04.448Z,10.10
2019-02-26T15:46:30.867Z,13.47
2019-02-26T15:48:59.308Z,17.43
2019-02-26T15:51:26.469Z,15.43
2019-02-26T15:53:55.296Z,11.40
2019-02-26T15:56:20.541Z,22.00
2019-02-26T15:58:46.798Z,14.00
2019-02-26T16:01:15.183Z,15.00
2019-02-26T16:03:42.137Z,11.70
2019-02-26T16:06:08.234Z,15.23
2019-02-26T16:08:34.838Z,20.57
2019-02-26T16:11:01.224Z,20.40
2019-02-26T16:13:27.333Z,22.30
2019-02-26T16:15:56.616Z,17.90
2019-02-26T16:18:24.722Z,16.37
2019-02-26T16:20:55.114Z,18.90
2019-02-26T16:23:21.269Z,12.97
2019-02-26T16:25:48.694Z,27.20
2019-02-26T16:28:14.716Z,22.23
2019-02-26T16:30:40.859Z,27.53
2019-02-26T16:33:11.259Z,21.50
2019-02-26T16:35:37.861Z,22.67
2019-02-26T16:38:05.849Z,23.70
2019-02-26T16:40:36.414Z,15.27
2019-02-26T16:43:03.256Z,21.90
2019-02-26T16:45:34.424Z,16.77
2019-02-26T16:47:57.557Z,16.73
2019-02-26T16:50:26.442Z,13.67
2019-02-26T16:52:52.819Z,21.30
2019-02-26T16:55:19.319Z,22.20
2019-02-26T16:57:46.023Z,19.70
2019-02-26T17:00:20.901Z,16.10
2019-02-26T17:02:48.560Z,23.70
2019-02-26T17:05:17.881Z,15.80
2019-02-26T17:07:47.549Z,20.73
2019-02-26T17:10:16.571Z,13.90
2019-02-26T17:12:46.265Z,25.30
2019-02-26T17:15:17.467Z,23.37
2019-02-26T17:17:44.793Z,17.47
2019-02-26T17:20:11.041Z,22.47
2019-02-26T17:22:38.426Z,21.77
2019-02-26T17:25:06.981Z,16.50
2019-02-26T17:27:33.484Z,20.40
2019-02-26T17:29:59.497Z,18.50
2019-02-26T17:32:27.456Z,26.23
2019-02-26T17:34:55.547Z,61.67
2019-02-26T17:37:25.741Z,21.20
2019-02-26T17:39:49.994Z,17.10
2019-02-26T17:42:17.880Z,23.53
2019-02-26T17:44:44.521Z,22.30
2019-02-26T17:47:10.849Z,55.47
2019-02-26T17:49:37.180Z,44.53
2019-02-26T17:52:03.390Z,30.80
2019-02-26T17:54:29.744Z,22.33
2019-02-26T17:57:00.369Z,23.83
2019-02-26T17:59:26.493Z,22.80
2019-02-26T18:01:52.910Z,25.33
2019-02-26T18:04:22.695Z,24.37
2019-02-26T18:06:47.651Z,38.30
2019-02-26T18:09:14.169Z,26.30
2019-02-26T18:11:42.308Z,23.10
2019-02-26T18:14:10.475Z,22.50
2019-02-26T18:16:37.854Z,33.00
2019-02-26T18:19:05.960Z,21.23
2019-02-26T18:21:32.182Z,36.43
2019-02-26T18:23:58.198Z,19.70
2019-02-26T18:26:27.236Z,23.60
2019-02-26T18:28:53.474Z,31.63
2019-02-26T18:31:26.446Z,47.50
2019-02-26T18:33:49.035Z,43.50
2019-02-26T18:36:15.307Z,40.83
2019-02-26T18:38:42.638Z,31.87
2019-02-26T18:41:08.732Z,40.70
2019-02-26T18:43:35.221Z,35.70
2019-02-26T18:46:01.397Z,29.53
2019-02-26T18:48:27.652Z,33.07
2019-02-26T18:50:54.504Z,33.70
2019-02-26T18:53:25.264Z,35.13
2019-02-26T18:55:51.532Z,47.43
2019-02-26T18:58:19.283Z,33.33
2019-02-26T19:00:46.031Z,34.57
2019-02-26T19:03:12.336Z,31.97
2019-02-26T19:05:40.378Z,24.90
2019-02-26T19:08:06.812Z,24.00
2019-02-26T19:10:34.263Z,33.30
2019-02-26T19:13:03.703Z,34.57
2019-02-26T19:15:32.670Z,28.97
2019-02-26T19:18:01.905Z,37.60
2019-02-26T19:20:32.363Z,38.57
2019-02-26T19:22:59.528Z,38.90
2019-02-26T19:25:31.242Z,37.33
2019-02-26T19:27:57.379Z,40.43
2019-02-26T19:30:23.485Z,42.33
2019-02-26T19:32:51.727Z,34.03
2019-02-26T19:35:17.778Z,39.97
2019-02-26T19:37:49.121Z,29.90
2019-02-26T19:40:19.035Z,31.40
2019-02-26T19:42:45.908Z,31.33
2019-02-26T19:45:12.619Z,45.57
2019-02-26T19:47:38.979Z,34.83
2019-02-26T19:50:11.688Z,34.93
2019-02-26T19:52:37.918Z,36.27
2019-02-26T19:55:12.905Z,46.77
2019-02-26T19:57:43.645Z,45.23
2019-02-26T20:00:12.551Z,46.83
2019-02-26T20:02:38.756Z,34.30
2019-02-26T20:05:12.836Z,57.13
2019-02-26T20:07:39.446Z,53.83
2019-02-26T20:10:15.161Z,44.27
2019-02-26T20:12:42.217Z,40.40
2019-02-26T20:15:10.264Z,45.50
2019-02-26T20:17:37.965Z,42.43
2019-02-26T20:20:07.444Z,31.23
2019-02-26T20:22:33.546Z,43.90
2019-02-26T20:25:01.008Z,40.80
2019-02-26T20:27:28.134Z,41.70
2019-02-26T20:29:55.686Z,38.50
2019-02-26T20:32:21.716Z,43.13
2019-02-26T20:34:50.348Z,41.10
2019-02-26T20:37:16.673Z,39.60
2019-02-26T20:39:44.194Z,41.00
2019-02-26T20:42:13.058Z,30.40
2019-02-26T20:44:43.449Z,38.23
2019-02-26T20:47:09.508Z,37.83
2019-02-26T20:49:35.658Z,30.90
2019-02-26T20:52:03.272Z,38.33
2019-02-26T20:54:29.482Z,37.97
2019-02-26T20:56:58.028Z,39.30
2019-02-26T20:59:24.383Z,40.47
2019-02-26T21:01:50.699Z,43.27
2019-02-26T21:04:16.861Z,44.93
2019-02-26T21:06:42.968Z,35.77
2019-02-26T21:09:09.435Z,42.87
2019-02-26T21:11:35.444Z,30.30
2019-02-26T21:14:03.239Z,35.00
2019-02-26T21:16:30.341Z,39.37
2019-02-26T21:19:02.693Z,30.93
2019-02-26T21:21:30.980Z,36.93
2019-02-26T21:24:00.936Z,33.13
2019-02-26T21:26:29.168Z,35.80
2019-02-26T21:28:56.547Z,33.93
2019-02-26T21:31:26.962Z,45.60
2019-02-26T21:33:53.175Z,30.90
2019-02-26T21:36:19.295Z,44.87
2019-02-26T21:38:45.552Z,30.40
2019-02-26T21:41:12.588Z,26.43
2019-02-26T21:43:38.879Z,33.33
2019-02-26T21:46:05.043Z,34.63
2019-02-26T21:48:36.326Z,31.47
2019-02-26T21:51:01.307Z,42.57
2019-02-26T21:53:31.701Z,43.50
2019-02-26T21:55:55.756Z,28.93
2019-02-26T21:58:22.153Z,32.10
2019-02-26T22:00:48.276Z,39.77
2019-02-26T22:03:17.646Z,32.73
2019-02-26T22:05:43.653Z,25.80
2019-02-26T22:08:09.700Z,32.27
2019-02-26T22:10:36.244Z,35.53
2019-02-26T22:13:02.370Z,34.80
2019-02-26T22:15:31.670Z,33.50
2019-02-26T22:17:58.936Z,32.27
2019-02-26T22:20:35.884Z,33.23
2019-02-26T22:22:53.141Z,34.07
2019-02-26T22:25:22.281Z,32.60
2019-02-26T22:27:51.241Z,40.13
2019-02-26T22:30:21.555Z,28.63
2019-02-26T22:32:46.274Z,40.23
2019-02-26T22:35:12.672Z,29.33
2019-02-26T22:37:43.127Z,36.00
2019-02-26T22:40:10.690Z,27.53
2019-02-26T22:42:38.864Z,33.80
2019-02-26T22:45:07.768Z,28.37
2019-02-26T22:47:40.118Z,47.53
2019-02-26T22:50:09.547Z,36.73
2019-02-26T22:52:36.226Z,32.57
2019-02-26T22:55:04.408Z,36.77
2019-02-26T22:57:33.730Z,42.00
2019-02-26T22:59:59.839Z,33.30
2019-02-26T23:02:28.511Z,32.00
2019-02-26T23:04:54.672Z,28.13
2019-02-26T23:07:21.028Z,26.80
2019-02-26T23:09:52.193Z,33.00
2019-02-26T23:12:23.393Z,28.10
2019-02-26T23:14:49.729Z,29.47
2019-02-26T23:17:15.932Z,31.40
2019-02-26T23:19:43.522Z,21.73
2019-02-26T23:22:11.059Z,23.50
2019-02-26T23:24:37.204Z,28.70
2019-02-26T23:27:03.929Z,25.13
2019-02-26T23:29:30.239Z,28.60
2019-02-26T23:31:56.398Z,26.90
2019-02-26T23:34:23.813Z,29.43
2019-02-26T23:36:50.073Z,25.20
2019-02-26T23:39:17.058Z,27.43
2019-02-26T23:41:43.119Z,30.67
2019-02-26T23:44:10.573Z,24.63
2019-02-26T23:46:36.801Z,23.53
2019-02-26T23:49:03.248Z,26.63
2019-02-26T23:51:29.359Z,25.13
2019-02-26T23:53:55.670Z,22.60
2019-02-26T23:56:21.695Z,21.30
2019-02-26T23:58:48.968Z,23.87
